Time;durP1;ratioP1;P1;durP2;ratioP2;P2;SDS_P1;SDS_P2;PMS_P1;PMS_P2;Temp;Humidity;BMP_temperature;BMP_pressure;BME280_temperature;BME280_humidity;BME280_pressure;Samples;Min_cycle;Max_cycle;Signal;HPM_P1;HPM_P2
2022/04/25 00:02:51;;;;;;;25.65;4.10;;;;;;;;;;5070600;28;20052;-62
2022/04/25 00:05:56;;;;;;;20.70;4.32;;;;;;;;;;5070420;28;20035;-62
2022/04/25 00:09:00;;;;;;;32.22;4.35;;;;;;;;;;5070155;28;20051;-63
2022/04/25 00:12:06;;;;;;;17.77;3.60;;;;;;;;;;5070463;28;20389;-63
2022/04/25 00:15:11;;;;;;;21.33;4.07;;;;;;;;;;5070324;28;20052;-62
2022/04/25 00:18:15;;;;;;;21.58;4.25;;;;;;;;;;5071079;28;20047;-62
2022/04/25 00:21:19;;;;;;;22.98;3.45;;;;;;;;;;5069896;28;20047;-62
2022/04/25 00:24:24;;;;;;;19.40;3.55;;;;;;;;;;5070674;28;20047;-62
2022/04/25 00:27:29;;;;;;;23.45;3.88;;;;;;;;;;5070452;28;20527;-63
2022/04/25 00:30:33;;;;;;;23.52;3.30;;;;;;;;;;5070968;28;20047;-63
2022/04/25 00:33:37;;;;;;;19.27;3.90;;;;;;;;;;5074372;28;20051;-63
2022/04/25 00:36:42;;;;;;;21.73;3.60;;;;;;;;;;5074420;28;20044;-63
2022/04/25 00:39:46;;;;;;;18.05;3.17;;;;;;;;;;5074289;28;20048;-63
2022/04/25 00:42:51;;;;;;;21.75;3.78;;;;;;;;;;5074220;28;20067;-63
2022/04/25 00:45:55;;;;;;;18.05;4.28;;;;;;;;;;5074063;28;20048;-63
2022/04/25 00:49:00;;;;;;;19.38;3.17;;;;;;;;;;5073904;28;20055;-63
2022/04/25 00:52:05;;;;;;;19.20;3.80;;;;;;;;;;5074060;28;20044;-63
2022/04/25 00:55:11;;;;;;;21.08;3.38;;;;;;;;;;5073796;28;20361;-63
2022/04/25 00:58:15;;;;;;;21.40;3.58;;;;;;;;;;5073946;28;20043;-63
2022/04/25 01:01:20;;;;;;;21.17;3.30;;;;;;;;;;5073895;28;20039;-63
2022/04/25 01:04:24;;;;;;;22.90;4.60;;;;;;;;;;5073682;28;20043;-63
2022/04/25 01:07:28;;;;;;;20.80;4.25;;;;;;;;;;5073310;28;20059;-63
2022/04/25 01:10:33;;;;;;;27.77;3.78;;;;;;;;;;5073618;28;20051;-63
2022/04/25 01:13:37;;;;;;;27.02;3.88;;;;;;;;;;5073685;28;20548;-63
2022/04/25 01:16:42;;;;;;;21.80;4.07;;;;;;;;;;5073185;28;20039;-63
2022/04/25 01:19:45;;;;;;;24.75;3.55;;;;;;;;;;5072657;28;20047;-62
2022/04/25 01:22:54;;;;;;;26.83;4.13;;;;;;;;;;5072529;28;20039;-63
2022/04/25 01:29:21;;;;;;;28.98;4.57;;;;;;;;;;5072928;28;20056;-62
2022/04/25 01:32:25;;;;;;;27.60;4.78;;;;;;;;;;5073233;28;20043;-63
2022/04/25 01:35:30;;;;;;;24.20;3.90;;;;;;;;;;5073054;28;20048;-63
2022/04/25 01:38:35;;;;;;;22.75;3.70;;;;;;;;;;5072753;28;20039;-63
2022/04/25 01:41:42;;;;;;;23.30;4.57;;;;;;;;;;5072811;28;20051;-63
2022/04/25 01:44:46;;;;;;;28.23;4.70;;;;;;;;;;5073077;28;20043;-63
2022/04/25 01:47:50;;;;;;;30.38;5.35;;;;;;;;;;5072491;28;20048;-63
2022/04/25 01:50:54;;;;;;;29.77;4.43;;;;;;;;;;5073038;28;20047;-63
2022/04/25 01:53:59;;;;;;;36.33;5.85;;;;;;;;;;5072732;28;20059;-63
2022/04/25 01:57:03;;;;;;;31.10;4.00;;;;;;;;;;5072535;28;20045;-63
2022/04/25 02:00:07;;;;;;;30.60;5.00;;;;;;;;;;5072642;28;20059;-63
2022/04/25 02:03:12;;;;;;;23.15;4.63;;;;;;;;;;5072709;28;20530;-62
2022/04/25 02:06:16;;;;;;;21.38;3.95;;;;;;;;;;5072496;28;20043;-63
2022/04/25 02:09:21;;;;;;;21.50;3.88;;;;;;;;;;5072283;28;20055;-63
2022/04/25 02:12:25;;;;;;;22.33;4.60;;;;;;;;;;5072432;28;20044;-63
2022/04/25 02:15:29;;;;;;;24.02;4.00;;;;;;;;;;5071749;28;20044;-63
2022/04/25 02:18:33;;;;;;;22.67;3.88;;;;;;;;;;5072151;28;20047;-63
2022/04/25 02:21:38;;;;;;;26.65;4.68;;;;;;;;;;5071997;28;20048;-63
2022/04/25 02:24:42;;;;;;;24.80;4.05;;;;;;;;;;5071690;28;20052;-63
2022/04/25 02:27:47;;;;;;;27.23;3.85;;;;;;;;;;5071879;28;20059;-63
2022/04/25 02:30:51;;;;;;;23.40;3.90;;;;;;;;;;5071779;28;20047;-63
2022/04/25 02:33:56;;;;;;;24.25;4.30;;;;;;;;;;5071796;28;20040;-63
2022/04/25 02:37:00;;;;;;;22.80;4.20;;;;;;;;;;5071762;28;20045;-63
2022/04/25 02:40:05;;;;;;;19.95;3.88;;;;;;;;;;5070723;28;20048;-63
2022/04/25 02:43:09;;;;;;;28.23;4.47;;;;;;;;;;5071796;28;20047;-62
2022/04/25 02:46:14;;;;;;;20.15;4.28;;;;;;;;;;5070544;28;20054;-63
2022/04/25 02:49:18;;;;;;;25.40;4.72;;;;;;;;;;5071209;28;20056;-64
2022/04/25 02:52:23;;;;;;;24.42;4.70;;;;;;;;;;5071199;28;20043;-64
2022/04/25 02:55:27;;;;;;;22.27;4.75;;;;;;;;;;5071226;28;20519;-64
2022/04/25 02:58:32;;;;;;;23.63;4.80;;;;;;;;;;5070951;28;20036;-64
2022/04/25 03:01:37;;;;;;;27.80;6.07;;;;;;;;;;5071611;28;20047;-64
2022/04/25 03:04:41;;;;;;;27.40;5.78;;;;;;;;;;5069626;28;20048;-64
2022/04/25 03:07:45;;;;;;;25.05;4.75;;;;;;;;;;5070672;28;20055;-64
2022/04/25 03:10:54;;;;;;;26.83;4.95;;;;;;;;;;5071115;28;20043;-64
2022/04/25 03:13:59;;;;;;;29.38;4.38;;;;;;;;;;5070518;28;20063;-64
2022/04/25 03:17:03;;;;;;;21.98;4.80;;;;;;;;;;5071048;28;20036;-64
2022/04/25 03:20:08;;;;;;;26.10;4.43;;;;;;;;;;5070975;28;20055;-63
2022/04/25 03:23:14;;;;;;;15.80;4.47;;;;;;;;;;5070985;28;20499;-64
2022/04/25 03:26:19;;;;;;;25.48;5.53;;;;;;;;;;5070597;28;20107;-64
2022/04/25 03:29:23;;;;;;;19.95;4.50;;;;;;;;;;5070533;28;20401;-64
2022/04/25 03:32:28;;;;;;;23.67;5.07;;;;;;;;;;5070662;28;20539;-63
2022/04/25 03:35:32;;;;;;;21.45;4.68;;;;;;;;;;5070684;28;20047;-64
2022/04/25 03:38:36;;;;;;;21.10;5.40;;;;;;;;;;5070692;28;20059;-64
2022/04/25 03:41:41;;;;;;;25.58;5.10;;;;;;;;;;5070220;28;20048;-63
2022/04/25 03:44:45;;;;;;;25.45;5.72;;;;;;;;;;5070377;28;20044;-64
2022/04/25 03:47:49;;;;;;;24.02;4.82;;;;;;;;;;5070321;28;20044;-64
2022/04/25 03:50:54;;;;;;;26.05;5.63;;;;;;;;;;5070627;28;20052;-64
2022/04/25 03:53:58;;;;;;;22.00;5.10;;;;;;;;;;5070374;28;20048;-64
2022/04/25 03:57:12;;;;;;;23.52;4.75;;;;;;;;;;5071018;28;20047;-64
2022/04/25 04:00:16;;;;;;;19.95;4.45;;;;;;;;;;5070651;28;20047;-63
2022/04/25 04:03:21;;;;;;;22.65;4.65;;;;;;;;;;5070696;28;20043;-64
2022/04/25 04:06:25;;;;;;;25.52;5.10;;;;;;;;;;5072621;28;20043;-64
2022/04/25 04:09:49;;;;;;;20.52;4.90;;;;;;;;;;5074559;28;20071;-63
2022/04/25 04:12:54;;;;;;;25.15;5.18;;;;;;;;;;5074193;28;20044;-64
2022/04/25 04:15:58;;;;;;;27.25;9.27;;;;;;;;;;5074025;28;20036;-64
2022/04/25 04:19:05;;;;;;;52.92;15.52;;;;;;;;;;5074589;28;20047;-63
2022/04/25 04:22:09;;;;;;;32.53;8.85;;;;;;;;;;5074541;28;20044;-63
2022/04/25 04:25:13;;;;;;;27.13;7.00;;;;;;;;;;5074001;28;20036;-64
2022/04/25 04:28:18;;;;;;;37.28;7.32;;;;;;;;;;5073977;28;20043;-64
2022/04/25 04:31:22;;;;;;;35.38;7.13;;;;;;;;;;5074255;28;20092;-64
2022/04/25 04:34:26;;;;;;;31.55;6.90;;;;;;;;;;5072997;28;20039;-64
2022/04/25 04:37:33;;;;;;;30.83;7.05;;;;;;;;;;5074149;28;20047;-64
2022/04/25 04:40:37;;;;;;;23.25;5.13;;;;;;;;;;5073495;28;20055;-63
2022/04/25 04:43:41;;;;;;;25.00;5.65;;;;;;;;;;5074044;28;20039;-64
2022/04/25 04:46:47;;;;;;;25.77;5.10;;;;;;;;;;5073231;28;20051;-63
2022/04/25 04:49:51;;;;;;;22.85;4.95;;;;;;;;;;5073865;28;20061;-64
2022/04/25 04:52:59;;;;;;;25.88;4.28;;;;;;;;;;5073649;28;20040;-64
2022/04/25 04:56:04;;;;;;;19.63;3.88;;;;;;;;;;5073594;28;20060;-64
2022/04/25 04:59:08;;;;;;;22.88;4.93;;;;;;;;;;5073500;28;20044;-64
2022/04/25 05:02:15;;;;;;;20.65;4.40;;;;;;;;;;5073890;28;20491;-64
2022/04/25 05:05:20;;;;;;;23.80;4.57;;;;;;;;;;5073652;28;20507;-64
2022/04/25 05:08:24;;;;;;;33.40;5.85;;;;;;;;;;5073180;28;20056;-65
2022/04/25 05:11:30;;;;;;;26.42;5.00;;;;;;;;;;5073360;28;20047;-64
2022/04/25 05:14:35;;;;;;;20.73;4.45;;;;;;;;;;5073204;28;20039;-63
2022/04/25 05:17:41;;;;;;;22.90;5.38;;;;;;;;;;5073074;28;20222;-63
2022/04/25 05:20:45;;;;;;;22.38;4.85;;;;;;;;;;5072798;28;20048;-62
2022/04/25 05:23:49;;;;;;;22.48;4.35;;;;;;;;;;5073304;28;20051;-64
2022/04/25 05:26:54;;;;;;;19.85;5.38;;;;;;;;;;5073325;28;20035;-64
2022/04/25 05:29:58;;;;;;;19.15;6.45;;;;;;;;;;5073231;28;20071;-64
2022/04/25 05:33:02;;;;;;;26.25;6.30;;;;;;;;;;5073149;28;20047;-64
2022/04/25 05:36:07;;;;;;;17.90;5.57;;;;;;;;;;5072828;28;20048;-63
2022/04/25 05:39:11;;;;;;;18.40;6.10;;;;;;;;;;5072870;28;20112;-63
2022/04/25 05:42:16;;;;;;;24.33;6.75;;;;;;;;;;5072972;28;20488;-63
2022/04/25 05:45:21;;;;;;;20.75;5.90;;;;;;;;;;5072419;28;20043;-63
2022/04/25 05:51:58;;;;;;;20.20;5.03;;;;;;;;;;5072967;28;20507;-64
2022/04/25 05:55:03;;;;;;;16.92;5.43;;;;;;;;;;5072737;28;20530;-64
2022/04/25 05:58:07;;;;;;;19.08;5.03;;;;;;;;;;5072835;28;20046;-64
2022/04/25 06:01:11;;;;;;;27.50;5.45;;;;;;;;;;5072731;28;20047;-63
2022/04/25 06:04:16;;;;;;;19.10;5.00;;;;;;;;;;5072333;28;20487;-63
2022/04/25 06:07:20;;;;;;;19.70;5.53;;;;;;;;;;5072441;28;20408;-64
2022/04/25 06:10:28;;;;;;;17.25;5.43;;;;;;;;;;5072020;28;20067;-64
2022/04/25 06:13:32;;;;;;;21.80;6.15;;;;;;;;;;5072365;28;20491;-63
2022/04/25 06:16:36;;;;;;;17.50;5.28;;;;;;;;;;5071998;28;20052;-64
2022/04/25 06:19:40;;;;;;;22.35;5.85;;;;;;;;;;5072282;28;20039;-64
2022/04/25 06:22:52;;;;;;;17.85;4.60;;;;;;;;;;5072033;28;20063;-64
2022/04/25 06:25:57;;;;;;;17.63;4.70;;;;;;;;;;5072255;28;20047;-64
2022/04/25 06:29:01;;;;;;;22.92;5.18;;;;;;;;;;5071305;28;20071;-63
2022/04/25 06:32:06;;;;;;;13.48;3.95;;;;;;;;;;5071660;28;20036;-63
2022/04/25 06:35:11;;;;;;;16.65;4.10;;;;;;;;;;5071626;28;20047;-63
2022/04/25 06:38:15;;;;;;;12.18;3.72;;;;;;;;;;5071959;28;20040;-63
2022/04/25 06:41:21;;;;;;;18.00;4.57;;;;;;;;;;5071854;28;20049;-64
2022/04/25 06:44:25;;;;;;;14.98;3.97;;;;;;;;;;5071804;28;20052;-64
2022/04/25 06:47:31;;;;;;;16.92;4.15;;;;;;;;;;5071815;28;20500;-64
2022/04/25 06:50:35;;;;;;;20.17;3.72;;;;;;;;;;5071285;28;20063;-64
2022/04/25 06:53:39;;;;;;;18.85;4.00;;;;;;;;;;5071381;28;20040;-64
2022/04/25 06:56:43;;;;;;;15.35;3.70;;;;;;;;;;5071491;28;20496;-65
2022/04/25 06:59:48;;;;;;;13.35;4.00;;;;;;;;;;5070292;28;20039;-64
2022/04/25 07:02:52;;;;;;;10.80;2.97;;;;;;;;;;5071165;28;20047;-64
2022/04/25 07:05:57;;;;;;;13.60;3.47;;;;;;;;;;5071034;28;20393;-64
2022/04/25 07:09:02;;;;;;;20.30;4.75;;;;;;;;;;5071321;28;20064;-64
2022/04/25 07:12:06;;;;;;;16.92;5.05;;;;;;;;;;5071584;28;20047;-64
2022/04/25 07:15:11;;;;;;;24.05;5.30;;;;;;;;;;5071116;28;20052;-64
2022/04/25 07:18:16;;;;;;;14.90;5.55;;;;;;;;;;5071389;28;20047;-64
2022/04/25 07:31:29;;;;;;;17.17;4.38;;;;;;;;;;5074454;28;20047;-64
2022/04/25 07:34:33;;;;;;;20.58;3.65;;;;;;;;;;5071286;28;20059;-64
2022/04/25 07:37:38;;;;;;;17.77;4.03;;;;;;;;;;5070758;28;20056;-64
2022/04/25 07:40:43;;;;;;;21.80;4.22;;;;;;;;;;5070739;28;20043;-64
2022/04/25 07:44:06;;;;;;;24.67;5.63;;;;;;;;;;5070820;28;20052;-64
2022/04/25 07:47:11;;;;;;;14.88;4.93;;;;;;;;;;5070883;28;20055;-64
2022/04/25 07:50:16;;;;;;;18.40;4.10;;;;;;;;;;5070247;28;20471;-64
2022/04/25 07:53:21;;;;;;;21.70;4.93;;;;;;;;;;5070499;28;20063;-65
2022/04/25 07:56:26;;;;;;;20.88;5.05;;;;;;;;;;5070908;28;20044;-64
2022/04/25 07:59:30;;;;;;;26.48;4.60;;;;;;;;;;5071203;28;20047;-64
2022/04/25 08:02:35;;;;;;;24.50;4.85;;;;;;;;;;5070608;28;20051;-64
2022/04/25 08:05:39;;;;;;;19.85;5.32;;;;;;;;;;5070429;28;20043;-63
2022/04/25 08:08:44;;;;;;;24.33;5.32;;;;;;;;;;5070195;28;20064;-64
2022/04/25 08:11:48;;;;;;;18.23;5.25;;;;;;;;;;5070424;28;20052;-64
2022/04/25 08:18:15;;;;;;;22.17;5.32;;;;;;;;;;5070373;28;20047;-63
2022/04/25 08:21:20;;;;;;;20.45;4.68;;;;;;;;;;5070529;28;20067;-64
2022/04/25 08:24:24;;;;;;;29.48;6.53;;;;;;;;;;5070284;28;20107;-64
2022/04/25 08:27:29;;;;;;;23.52;4.90;;;;;;;;;;5070458;28;20051;-63
2022/04/25 08:30:33;;;;;;;25.60;5.82;;;;;;;;;;5070042;28;20246;-63
2022/04/25 08:33:37;;;;;;;24.25;4.95;;;;;;;;;;5069758;28;20495;-63
2022/04/25 08:36:41;;;;;;;20.40;6.32;;;;;;;;;;5069977;28;20048;-64
2022/04/25 08:39:46;;;;;;;25.02;6.47;;;;;;;;;;5070242;28;20503;-63
2022/04/25 08:42:50;;;;;;;28.25;6.53;;;;;;;;;;5070218;28;20396;-64
2022/04/25 08:45:56;;;;;;;17.80;4.22;;;;;;;;;;5070174;28;20059;-64
2022/04/25 08:49:05;;;;;;;17.33;3.45;;;;;;;;;;5069805;28;20059;-64
2022/04/25 08:52:10;;;;;;;20.98;4.47;;;;;;;;;;5072590;28;20032;-63
2022/04/25 08:55:14;;;;;;;17.02;3.65;;;;;;;;;;5073507;28;20396;-64
2022/04/25 08:58:19;;;;;;;17.63;4.20;;;;;;;;;;5073743;28;20047;-64
2022/04/25 09:01:23;;;;;;;23.58;5.55;;;;;;;;;;5073428;28;20297;-64
2022/04/25 09:04:28;;;;;;;19.50;4.80;;;;;;;;;;5073205;28;20063;-64
2022/04/25 09:07:33;;;;;;;18.38;4.88;;;;;;;;;;5073248;28;20052;-64
2022/04/25 09:10:40;;;;;;;17.90;4.28;;;;;;;;;;5073257;28;20056;-65
2022/04/25 09:13:45;;;;;;;17.92;3.75;;;;;;;;;;5073134;28;20044;-65
2022/04/25 09:16:50;;;;;;;26.50;5.45;;;;;;;;;;5073382;28;20052;-64
2022/04/25 09:19:55;;;;;;;13.68;3.72;;;;;;;;;;5072846;28;20047;-64
2022/04/25 09:22:59;;;;;;;15.13;4.78;;;;;;;;;;5073362;28;20047;-63
2022/04/25 09:26:28;;;;;;;18.23;4.88;;;;;;;;;;5073352;28;20048;-64
2022/04/25 09:29:32;;;;;;;10.38;3.40;;;;;;;;;;5073263;28;20048;-63
2022/04/25 09:32:37;;;;;;;15.90;3.95;;;;;;;;;;5072925;28;20043;-64
2022/04/25 09:35:42;;;;;;;12.48;3.20;;;;;;;;;;5072915;28;20051;-63
2022/04/25 09:38:46;;;;;;;11.50;3.70;;;;;;;;;;5072538;28;20055;-64
2022/04/25 09:41:51;;;;;;;16.98;4.15;;;;;;;;;;5073001;28;20048;-63
2022/04/25 09:44:56;;;;;;;15.27;4.80;;;;;;;;;;5072773;28;20656;-64
2022/04/25 09:48:00;;;;;;;9.98;3.67;;;;;;;;;;5072751;28;20200;-63
2022/04/25 09:51:05;;;;;;;12.98;3.00;;;;;;;;;;5072404;28;20480;-64
2022/04/25 09:54:11;;;;;;;13.18;2.90;;;;;;;;;;5072364;28;20059;-63
2022/04/25 09:57:32;;;;;;;9.98;2.90;;;;;;;;;;5072924;28;20519;-63
2022/04/25 10:00:38;;;;;;;13.63;3.60;;;;;;;;;;5072088;28;20040;-64
2022/04/25 10:03:43;;;;;;;13.15;2.78;;;;;;;;;;5071134;28;20067;-64
2022/04/25 10:06:47;;;;;;;10.07;2.63;;;;;;;;;;5072060;28;20051;-64
2022/04/25 10:09:52;;;;;;;8.07;2.90;;;;;;;;;;5072159;28;20051;-64
2022/04/25 10:12:56;;;;;;;9.40;2.83;;;;;;;;;;5072444;28;20036;-64
2022/04/25 10:16:01;;;;;;;12.95;3.25;;;;;;;;;;5071770;28;20052;-63
2022/04/25 10:19:06;;;;;;;11.32;3.78;;;;;;;;;;5072020;28;20048;-64
2022/04/25 10:22:11;;;;;;;13.18;3.20;;;;;;;;;;5071912;28;20043;-64
2022/04/25 10:25:15;;;;;;;10.45;2.65;;;;;;;;;;5071745;28;20043;-63
2022/04/25 10:28:24;;;;;;;9.07;2.85;;;;;;;;;;5072097;28;20123;-63
2022/04/25 10:31:30;;;;;;;10.88;3.85;;;;;;;;;;5071920;28;20078;-64
2022/04/25 10:34:48;;;;;;;11.43;3.40;;;;;;;;;;5071442;28;20377;-64
2022/04/25 10:37:52;;;;;;;16.83;3.58;;;;;;;;;;5071712;28;20396;-64
2022/04/25 10:44:29;;;;;;;11.52;3.25;;;;;;;;;;5070284;28;20048;-64
2022/04/25 10:47:34;;;;;;;7.63;2.67;;;;;;;;;;5071389;28;20039;-64
2022/04/25 10:50:57;;;;;;;11.20;3.75;;;;;;;;;;5071417;28;20144;-64
2022/04/25 10:54:03;;;;;;;11.20;3.10;;;;;;;;;;5071524;28;20039;-63
2022/04/25 10:57:11;;;;;;;10.77;2.83;;;;;;;;;;5071539;28;20491;-63
2022/04/25 11:00:36;;;;;;;13.55;3.10;;;;;;;;;;5071283;28;20047;-63
2022/04/25 11:04:00;;;;;;;7.85;2.65;;;;;;;;;;5071572;28;20036;-63
2022/04/25 11:07:24;;;;;;;7.25;2.85;;;;;;;;;;5070910;28;20044;-63
2022/04/25 11:10:44;;;;;;;16.67;3.28;;;;;;;;;;5071138;28;20405;-64
2022/04/25 11:13:51;;;;;;;10.25;2.90;;;;;;;;;;5070586;28;20071;-64
2022/04/25 11:17:05;;;;;;;13.48;4.18;;;;;;;;;;5071004;28;20051;-64
2022/04/25 11:20:10;;;;;;;11.82;3.40;;;;;;;;;;5071237;28;20043;-64
2022/04/25 11:23:26;;;;;;;14.68;4.07;;;;;;;;;;5071143;28;20625;-64
2022/04/25 11:26:36;;;;;;;7.10;2.50;;;;;;;;;;5070754;28;20048;-63
2022/04/25 11:29:45;;;;;;;11.15;2.78;;;;;;;;;;5071109;28;20044;-64
2022/04/25 11:32:50;;;;;;;16.20;4.13;;;;;;;;;;5071189;28;20047;-65
2022/04/25 11:36:00;;;;;;;14.50;4.47;;;;;;;;;;5070760;28;20044;-64
2022/04/25 11:42:29;;;;;;;11.65;3.75;;;;;;;;;;5070729;28;20043;-64
2022/04/25 11:45:33;;;;;;;8.40;2.88;;;;;;;;;;5070620;28;20055;-64
2022/04/25 11:48:37;;;;;;;9.70;2.70;;;;;;;;;;5070670;28;20044;-64
2022/04/25 11:51:44;;;;;;;11.57;3.30;;;;;;;;;;5070842;28;20036;-64
2022/04/25 11:54:48;;;;;;;13.48;2.92;;;;;;;;;;5070875;28;20056;-64
2022/04/25 11:57:52;;;;;;;15.75;3.15;;;;;;;;;;5070950;28;20495;-64
2022/04/25 12:00:57;;;;;;;11.38;2.65;;;;;;;;;;5070995;28;20051;-63
2022/04/25 12:04:20;;;;;;;12.95;3.00;;;;;;;;;;5070806;28;20047;-64
2022/04/25 12:07:24;;;;;;;10.38;2.95;;;;;;;;;;5070836;28;20059;-63
2022/04/25 12:17:14;;;;;;;13.50;3.85;;;;;;;;;;5070465;28;20055;-65
2022/04/25 12:20:20;;;;;;;13.63;4.43;;;;;;;;;;5070429;28;20392;-65
2022/04/25 12:23:29;;;;;;;10.07;2.90;;;;;;;;;;5070541;28;20047;-63
2022/04/25 12:26:34;;;;;;;13.38;3.92;;;;;;;;;;5072163;28;20397;-64
2022/04/25 12:29:59;;;;;;;12.07;4.45;;;;;;;;;;5074382;28;20055;-64
2022/04/25 12:33:10;;;;;;;13.30;3.38;;;;;;;;;;5074194;28;20047;-63
2022/04/25 12:36:18;;;;;;;12.25;3.35;;;;;;;;;;5074186;28;20051;-64
2022/04/25 12:39:24;;;;;;;17.20;3.45;;;;;;;;;;5073865;28;20048;-63
2022/04/25 12:42:44;;;;;;;10.77;3.33;;;;;;;;;;5073888;28;20051;-63
2022/04/25 12:45:49;;;;;;;12.30;2.78;;;;;;;;;;5073889;28;20047;-64
2022/04/25 12:49:11;;;;;;;12.93;3.63;;;;;;;;;;5073921;28;20044;-64
2022/04/25 12:52:16;;;;;;;11.85;3.60;;;;;;;;;;5073785;28;20055;-63
2022/04/25 12:55:40;;;;;;;16.73;3.40;;;;;;;;;;5073703;28;20044;-63
2022/04/25 12:58:47;;;;;;;9.38;2.95;;;;;;;;;;5073972;28;20055;-64
2022/04/25 13:02:05;;;;;;;13.55;2.80;;;;;;;;;;5073497;28;20032;-63
2022/04/25 13:05:13;;;;;;;12.50;3.50;;;;;;;;;;5073781;28;20400;-64
2022/04/25 13:08:18;;;;;;;15.77;3.42;;;;;;;;;;5073476;28;20068;-65
2022/04/25 13:11:22;;;;;;;15.68;2.88;;;;;;;;;;5073360;28;20059;-64
2022/04/25 13:14:27;;;;;;;19.75;3.90;;;;;;;;;;5073312;28;20115;-64
2022/04/25 13:17:32;;;;;;;10.05;3.00;;;;;;;;;;5073238;28;20155;-64
2022/04/25 13:20:36;;;;;;;11.25;2.92;;;;;;;;;;5073459;28;20426;-63
2022/04/25 13:23:41;;;;;;;8.57;2.55;;;;;;;;;;5073278;28;20044;-63
2022/04/25 13:26:45;;;;;;;8.90;3.40;;;;;;;;;;5073189;28;20468;-63
2022/04/25 13:29:50;;;;;;;13.88;3.13;;;;;;;;;;5073398;28;20044;-63
2022/04/25 13:32:56;;;;;;;12.90;4.50;;;;;;;;;;5073522;28;20051;-63
2022/04/25 13:36:00;;;;;;;14.43;3.45;;;;;;;;;;5073217;28;20051;-64
2022/04/25 13:39:04;;;;;;;13.63;2.72;;;;;;;;;;5073337;28;20400;-63
2022/04/25 13:42:09;;;;;;;10.25;2.80;;;;;;;;;;5073297;28;20047;-63
2022/04/25 13:45:13;;;;;;;14.00;2.78;;;;;;;;;;5072725;28;20047;-63
2022/04/25 13:48:18;;;;;;;15.13;3.40;;;;;;;;;;5072863;28;20052;-63
2022/04/25 13:51:22;;;;;;;10.85;3.17;;;;;;;;;;5072529;28;20052;-64
2022/04/25 13:54:26;;;;;;;9.05;2.50;;;;;;;;;;5072673;28;20044;-63
2022/04/25 13:57:30;;;;;;;16.27;3.72;;;;;;;;;;5072846;28;20040;-63
2022/04/25 14:00:34;;;;;;;11.70;2.95;;;;;;;;;;5072865;28;20044;-63
2022/04/25 14:03:39;;;;;;;9.80;3.22;;;;;;;;;;5072684;28;20063;-64
2022/04/25 14:06:44;;;;;;;10.90;2.83;;;;;;;;;;5072193;28;20488;-62
2022/04/25 14:09:49;;;;;;;8.93;2.72;;;;;;;;;;5072195;28;20056;-63
2022/04/25 14:12:53;;;;;;;12.95;3.13;;;;;;;;;;5072660;28;20449;-63
2022/04/25 14:15:57;;;;;;;8.40;2.58;;;;;;;;;;5072247;28;20044;-63
2022/04/25 14:19:02;;;;;;;5.80;2.22;;;;;;;;;;5072373;28;20044;-63
2022/04/25 14:22:26;;;;;;;13.75;3.03;;;;;;;;;;5072312;28;20036;-63
2022/04/25 14:25:31;;;;;;;13.90;2.75;;;;;;;;;;5072436;28;20051;-63
2022/04/25 14:28:35;;;;;;;12.77;3.42;;;;;;;;;;5072153;28;20039;-63
2022/04/25 14:31:39;;;;;;;14.38;2.95;;;;;;;;;;5071605;28;20071;-63
2022/04/25 14:34:43;;;;;;;10.25;2.97;;;;;;;;;;5071502;28;20586;-63
2022/04/25 14:37:48;;;;;;;14.07;3.22;;;;;;;;;;5071957;28;20059;-62
2022/04/25 14:40:54;;;;;;;15.43;3.00;;;;;;;;;;5071720;28;20202;-62
2022/04/25 14:43:58;;;;;;;10.38;3.13;;;;;;;;;;5071805;28;20044;-62
2022/04/25 14:47:03;;;;;;;11.82;2.55;;;;;;;;;;5071460;28;20043;-62
2022/04/25 14:56:53;;;;;;;10.50;2.90;;;;;;;;;;5071511;28;20033;-63
2022/04/25 14:59:58;;;;;;;12.18;4.40;;;;;;;;;;5071501;28;20050;-64
2022/04/25 15:03:02;;;;;;;8.35;3.10;;;;;;;;;;5071640;28;20039;-64
2022/04/25 15:06:06;;;;;;;13.13;3.28;;;;;;;;;;5071423;28;20040;-64
2022/04/25 15:09:11;;;;;;;10.32;3.00;;;;;;;;;;5071373;28;20055;-64
2022/04/25 15:12:15;;;;;;;19.70;3.28;;;;;;;;;;5071203;28;20063;-64
2022/04/25 15:15:19;;;;;;;12.32;3.30;;;;;;;;;;5071173;28;20039;-64
2022/04/25 15:18:23;;;;;;;12.63;3.30;;;;;;;;;;5070328;28;20059;-64
2022/04/25 15:21:29;;;;;;;9.15;3.08;;;;;;;;;;5070990;28;20047;-63
2022/04/25 15:24:34;;;;;;;10.45;3.10;;;;;;;;;;5070901;28;20045;-64
2022/04/25 15:27:39;;;;;;;11.98;3.05;;;;;;;;;;5071340;28;20419;-64
2022/04/25 15:30:43;;;;;;;15.35;3.33;;;;;;;;;;5070797;28;20071;-64
2022/04/25 15:33:49;;;;;;;10.98;3.70;;;;;;;;;;5070543;28;20237;-64
2022/04/25 15:36:53;;;;;;;8.73;2.83;;;;;;;;;;5070898;28;20048;-63
2022/04/25 15:39:58;;;;;;;9.68;2.92;;;;;;;;;;5070629;28;20049;-63
2022/04/25 15:43:02;;;;;;;13.63;3.38;;;;;;;;;;5070725;28;20480;-63
2022/04/25 15:46:06;;;;;;;16.25;3.90;;;;;;;;;;5070822;28;20069;-64
2022/04/25 15:49:11;;;;;;;11.63;3.33;;;;;;;;;;5070964;28;20051;-63
2022/04/25 15:52:15;;;;;;;16.58;3.95;;;;;;;;;;5070458;28;20051;-64
2022/04/25 15:58:43;;;;;;;17.27;3.60;;;;;;;;;;5070767;28;20233;-77
2022/04/25 16:01:47;;;;;;;12.90;3.55;;;;;;;;;;5074863;28;20520;-87
2022/04/25 16:04:51;;;;;;;9.18;3.90;;;;;;;;;;5074667;28;20056;-81
2022/04/25 16:07:56;;;;;;;11.70;3.00;;;;;;;;;;5075557;28;20053;-86
2022/04/25 16:11:03;;;;;;;10.70;2.95;;;;;;;;;;5075158;28;20056;-79
2022/04/25 16:14:07;;;;;;;12.10;3.90;;;;;;;;;;5074623;28;20413;-78
2022/04/25 16:17:12;;;;;;;9.13;3.00;;;;;;;;;;5073662;28;20051;-77
2022/04/25 16:20:18;;;;;;;13.07;3.30;;;;;;;;;;5075241;28;20397;-86
2022/04/25 16:23:22;;;;;;;10.60;3.03;;;;;;;;;;5074671;28;20052;-86
2022/04/25 16:26:26;;;;;;;12.30;3.08;;;;;;;;;;5062723;28;20051;-82
2022/04/25 16:29:31;;;;;;;13.23;3.88;;;;;;;;;;5074896;28;20047;-84
2022/04/25 16:32:35;;;;;;;11.88;3.30;;;;;;;;;;5074706;28;20052;-84
2022/04/25 16:35:42;;;;;;;14.23;3.15;;;;;;;;;;5062037;28;20424;-80
2022/04/25 16:38:47;;;;;;;9.68;3.50;;;;;;;;;;5073792;28;20043;-79
2022/04/25 16:41:51;;;;;;;10.35;2.67;;;;;;;;;;5074348;28;20381;-81
2022/04/25 16:44:55;;;;;;;11.05;2.75;;;;;;;;;;5073164;28;20043;-78
2022/04/25 16:48:00;;;;;;;7.63;2.65;;;;;;;;;;5074521;28;20553;-79
2022/04/25 16:51:05;;;;;;;13.70;3.10;;;;;;;;;;5074069;28;20040;-81
2022/04/25 16:54:10;;;;;;;11.48;3.40;;;;;;;;;;5073908;28;20044;-82
2022/04/25 16:57:16;;;;;;;14.85;3.30;;;;;;;;;;5074095;28;20522;-81
2022/04/25 17:00:21;;;;;;;10.65;3.42;;;;;;;;;;5074334;28;20047;-78
2022/04/25 17:03:25;;;;;;;11.82;3.83;;;;;;;;;;5062376;28;20500;-78
2022/04/25 17:06:29;;;;;;;8.68;3.58;;;;;;;;;;5073486;28;20408;-78
2022/04/25 17:09:34;;;;;;;13.25;3.45;;;;;;;;;;5074084;28;20052;-80
2022/04/25 17:12:39;;;;;;;8.77;3.13;;;;;;;;;;5072909;28;20063;-78
2022/04/25 17:15:43;;;;;;;12.30;3.33;;;;;;;;;;5074005;28;20036;-77
2022/04/25 17:18:47;;;;;;;14.20;4.20;;;;;;;;;;5073835;28;20059;-83
2022/04/25 17:21:52;;;;;;;11.25;3.40;;;;;;;;;;5073678;28;20491;-81
2022/04/25 17:24:57;;;;;;;10.25;3.25;;;;;;;;;;5073949;28;20067;-77
2022/04/25 17:28:01;;;;;;;10.50;3.28;;;;;;;;;;5073643;28;20495;-79
2022/04/25 17:35:20;;;;;;;19.05;3.42;;;;;;;;;;5072324;28;20055;-82
